Time;durP1;ratioP1;P1;durP2;ratioP2;P2;SDS_P1;SDS_P2;PMS_P1;PMS_P2;Temp;Humidity;BMP_temperature;BMP_pressure;BME280_temperature;BME280_humidity;BME280_pressure;Samples;Min_cycle;Max_cycle;Signal;HPM_P1;HPM_P2
2021/05/28 00:01:04;;;;;;;4.70;4.30;;;11.40;99.90;;;;;;5073863;28;20166;-74
2021/05/28 00:03:30;;;;;;;4.00;3.60;;;11.40;99.90;;;;;;5075948;28;20171;-74
2021/05/28 00:05:56;;;;;;;4.03;3.73;;;11.40;99.90;;;;;;5076119;28;20201;-74
2021/05/28 00:08:21;;;;;;;4.30;3.90;;;11.40;99.90;;;;;;5075673;28;20316;-74
2021/05/28 00:10:47;;;;;;;4.70;3.77;;;11.30;99.90;;;;;;5072230;28;20423;-74
2021/05/28 00:13:14;;;;;;;4.23;3.93;;;11.40;99.90;;;;;;5071982;28;20540;-74
2021/05/28 00:15:40;;;;;;;5.00;4.57;;;11.40;99.90;;;;;;5063733;28;20217;-74
2021/05/28 00:18:08;;;;;;;4.40;4.00;;;11.40;99.90;;;;;;5051610;28;20406;-74
2021/05/28 00:20:34;;;;;;;5.60;3.90;;;11.40;99.90;;;;;;5043215;28;20973;-74
2021/05/28 00:22:59;;;;;;;11.00;4.77;;;11.40;99.90;;;;;;5072681;28;20412;-74
2021/05/28 00:25:26;;;;;;;5.80;5.30;;;11.40;99.90;;;;;;5076082;28;20412;-74
2021/05/28 00:27:52;;;;;;;4.90;4.40;;;11.40;99.90;;;;;;5079547;28;20189;-74
2021/05/28 00:30:17;;;;;;;3.93;3.40;;;11.40;99.90;;;;;;5077970;28;20420;-74
2021/05/28 00:32:43;;;;;;;4.33;3.63;;;11.40;99.90;;;;;;5070238;28;20173;-74
2021/05/28 00:35:09;;;;;;;4.93;4.50;;;11.50;99.90;;;;;;5071541;28;20187;-74
2021/05/28 00:37:34;;;;;;;5.53;4.60;;;11.40;99.90;;;;;;5057934;28;20178;-74
2021/05/28 00:40:00;;;;;;;4.17;3.77;;;11.40;99.90;;;;;;5055360;28;20588;-74
2021/05/28 00:42:25;;;;;;;4.77;4.27;;;11.40;99.90;;;;;;5054984;28;20167;-74
2021/05/28 00:44:51;;;;;;;4.47;4.10;;;11.50;99.90;;;;;;5054918;28;20172;-74
2021/05/28 00:47:16;;;;;;;5.00;4.50;;;11.50;99.90;;;;;;5055081;28;20175;-74
2021/05/28 00:49:42;;;;;;;4.40;4.10;;;11.50;99.90;;;;;;5054944;28;20550;-73
2021/05/28 00:52:08;;;;;;;4.80;4.37;;;11.40;99.90;;;;;;5054714;28;20178;-74
2021/05/28 00:54:33;;;;;;;3.53;3.33;;;11.30;99.90;;;;;;5054645;28;20197;-73
2021/05/28 00:56:58;;;;;;;4.80;4.40;;;11.30;99.90;;;;;;5054677;28;20170;-74
2021/05/28 00:59:25;;;;;;;5.00;4.60;;;11.30;99.90;;;;;;5036672;28;20666;-74
2021/05/28 01:01:51;;;;;;;4.90;4.40;;;11.30;99.90;;;;;;5054611;28;20657;-74
2021/05/28 01:04:16;;;;;;;4.77;4.43;;;11.40;99.90;;;;;;5054633;28;20931;-74
2021/05/28 01:06:42;;;;;;;5.00;4.60;;;11.30;99.90;;;;;;5054349;28;20405;-73
2021/05/28 01:09:09;;;;;;;4.83;4.47;;;11.30;99.90;;;;;;5054459;28;20237;-74
2021/05/28 01:11:35;;;;;;;4.90;4.50;;;11.30;99.90;;;;;;5054319;28;20428;-74
2021/05/28 01:14:01;;;;;;;7.20;4.40;;;11.30;99.90;;;;;;5054278;28;20536;-74
2021/05/28 01:16:28;;;;;;;5.33;4.83;;;11.30;99.90;;;;;;5054239;28;20983;-74
2021/05/28 01:18:54;;;;;;;4.83;4.43;;;11.30;99.90;;;;;;5054278;28;20429;-74
2021/05/28 01:21:20;;;;;;;4.53;4.13;;;11.30;99.90;;;;;;5054158;28;20484;-74
2021/05/28 01:23:47;;;;;;;5.37;4.87;;;11.20;99.90;;;;;;5054421;28;20401;-74
2021/05/28 01:26:12;;;;;;;8.17;5.10;;;11.10;99.90;;;;;;5054010;28;20413;-74
2021/05/28 01:28:38;;;;;;;8.90;4.53;;;11.10;99.90;;;;;;5054153;28;20970;-74
2021/05/28 01:31:03;;;;;;;5.00;4.50;;;11.20;99.90;;;;;;5052909;28;20159;-74
2021/05/28 01:33:30;;;;;;;4.90;4.40;;;11.10;99.90;;;;;;5067019;28;20178;-74
2021/05/28 01:35:58;;;;;;;5.20;4.70;;;11.10;99.90;;;;;;5074109;28;20194;-74
2021/05/28 01:38:24;;;;;;;5.23;4.83;;;11.10;99.90;;;;;;5075221;28;20404;-74
2021/05/28 01:40:50;;;;;;;5.47;4.93;;;11.00;99.90;;;;;;5074963;28;20400;-74
2021/05/28 01:43:15;;;;;;;6.17;4.90;;;11.00;99.90;;;;;;5073641;28;20417;-74
2021/05/28 01:45:41;;;;;;;5.40;4.90;;;11.00;99.90;;;;;;5073744;28;20216;-74
2021/05/28 01:48:07;;;;;;;5.20;4.40;;;11.00;99.90;;;;;;5073637;28;20637;-74
2021/05/28 01:50:43;;;;;;;5.40;4.90;;;11.00;99.90;;;;;;5073656;28;20722;-74
2021/05/28 01:53:10;;;;;;;5.17;4.77;;;10.90;99.90;;;;;;5073688;28;20827;-74
2021/05/28 01:55:35;;;;;;;5.93;5.00;;;11.00;99.90;;;;;;5073528;28;20494;-74
2021/05/28 01:58:05;;;;;;;4.90;4.47;;;10.90;99.90;;;;;;5073399;28;20392;-74
2021/05/28 02:00:30;;;;;;;5.20;4.73;;;10.90;99.90;;;;;;5073427;28;20189;-74
2021/05/28 02:02:55;;;;;;;4.37;4.03;;;10.90;99.90;;;;;;5073432;28;20458;-74
2021/05/28 02:05:21;;;;;;;4.80;4.40;;;10.90;99.90;;;;;;5073440;28;20205;-74
2021/05/28 02:07:46;;;;;;;5.23;4.40;;;10.90;99.90;;;;;;5073349;28;20189;-74
2021/05/28 02:10:12;;;;;;;4.53;4.13;;;10.90;99.90;;;;;;5073236;28;20190;-74
2021/05/28 02:12:37;;;;;;;4.73;4.27;;;10.90;99.90;;;;;;5073022;28;20259;-74
2021/05/28 02:15:03;;;;;;;5.20;4.43;;;10.90;99.90;;;;;;5073313;28;20194;-74
2021/05/28 02:17:30;;;;;;;5.30;4.90;;;10.90;99.90;;;;;;5055217;28;20166;-74
2021/05/28 02:19:55;;;;;;;4.57;4.17;;;10.80;99.90;;;;;;5072984;28;20420;-74
2021/05/28 02:22:21;;;;;;;4.23;3.83;;;10.80;99.90;;;;;;5073064;28;20423;-74
2021/05/28 02:24:47;;;;;;;4.60;4.17;;;10.80;99.90;;;;;;5073099;28;20208;-74
2021/05/28 02:27:12;;;;;;;4.83;4.23;;;10.70;99.90;;;;;;5072774;28;20166;-74
2021/05/28 02:29:37;;;;;;;5.67;4.73;;;10.70;99.90;;;;;;5072940;28;20202;-74
2021/05/28 02:32:03;;;;;;;10.10;4.10;;;10.80;99.90;;;;;;5072898;28;20170;-74
2021/05/28 02:34:29;;;;;;;4.50;3.70;;;10.80;99.90;;;;;;5072923;28;20194;-75
2021/05/28 02:36:54;;;;;;;5.43;3.40;;;10.80;99.90;;;;;;5072834;28;20188;-74
2021/05/28 02:39:20;;;;;;;4.73;3.67;;;10.80;99.90;;;;;;5072807;28;20273;-74
2021/05/28 02:41:45;;;;;;;4.47;4.07;;;10.70;99.90;;;;;;5072723;28;20173;-74
2021/05/28 02:44:11;;;;;;;3.90;3.60;;;10.70;99.90;;;;;;5072738;28;20600;-74
2021/05/28 02:46:36;;;;;;;4.60;4.20;;;10.70;99.90;;;;;;5054120;28;20177;-74
2021/05/28 02:49:02;;;;;;;3.80;3.50;;;10.70;99.90;;;;;;5072589;28;20629;-74
2021/05/28 02:51:28;;;;;;;8.00;4.00;;;10.70;99.90;;;;;;5072561;28;20170;-74
2021/05/28 02:53:53;;;;;;;3.47;3.23;;;10.70;99.90;;;;;;5072624;28;20821;-74
2021/05/28 02:56:19;;;;;;;3.60;3.30;;;10.70;99.90;;;;;;5072330;28;20179;-74
2021/05/28 02:58:44;;;;;;;3.70;3.00;;;10.70;99.90;;;;;;5072317;28;20190;-74
2021/05/28 03:01:10;;;;;;;3.27;3.00;;;10.70;99.90;;;;;;5072246;28;20645;-74
2021/05/28 03:03:35;;;;;;;7.17;3.00;;;10.70;99.90;;;;;;5072428;28;20172;-74
2021/05/28 03:06:01;;;;;;;3.00;2.80;;;10.70;99.90;;;;;;5054407;28;20290;-74
2021/05/28 03:08:26;;;;;;;6.23;2.70;;;10.60;99.90;;;;;;5072301;28;20205;-74
2021/05/28 03:10:53;;;;;;;3.47;3.17;;;10.60;99.90;;;;;;5072265;28;20197;-75
2021/05/28 03:13:18;;;;;;;3.93;2.83;;;10.60;99.90;;;;;;5054362;28;20204;-74
2021/05/28 03:15:44;;;;;;;6.60;2.50;;;10.50;99.90;;;;;;5072110;28;20561;-74
2021/05/28 03:18:16;;;;;;;3.53;2.60;;;10.50;99.90;;;;;;5054096;28;20185;-74
2021/05/28 03:20:46;;;;;;;5.87;2.60;;;10.50;99.90;;;;;;5072207;28;20613;-74
2021/05/28 03:23:12;;;;;;;2.60;2.30;;;10.50;99.90;;;;;;5072059;28;20872;-74
2021/05/28 03:25:38;;;;;;;2.60;2.23;;;10.50;99.90;;;;;;5072003;28;20452;-74
2021/05/28 03:28:04;;;;;;;2.80;2.60;;;10.50;99.90;;;;;;5072072;28;20415;-74
2021/05/28 03:30:29;;;;;;;2.90;2.53;;;10.40;99.90;;;;;;5072314;28;20424;-75
2021/05/28 03:32:55;;;;;;;4.57;2.10;;;10.30;99.90;;;;;;5065778;28;20258;-74
2021/05/28 03:35:20;;;;;;;4.73;1.83;;;10.30;99.90;;;;;;5061170;28;20683;-74
2021/05/28 03:37:46;;;;;;;2.43;2.23;;;10.30;99.90;;;;;;5071702;28;20185;-74
2021/05/28 03:40:12;;;;;;;2.90;2.10;;;10.20;99.90;;;;;;5055266;28;20732;-75
2021/05/28 03:42:38;;;;;;;2.80;2.60;;;10.20;99.90;;;;;;5033931;28;20269;-72
2021/05/28 03:45:06;;;;;;;3.90;2.60;;;10.20;99.90;;;;;;5033974;28;20504;-73
2021/05/28 03:47:36;;;;;;;3.00;2.67;;;10.20;99.90;;;;;;5051729;28;20777;-73
2021/05/28 03:50:02;;;;;;;3.33;2.70;;;10.30;99.90;;;;;;5051641;28;20425;-74
2021/05/28 03:52:28;;;;;;;2.73;2.53;;;10.30;99.90;;;;;;5059781;28;20417;-74
2021/05/28 03:54:53;;;;;;;2.93;2.73;;;10.30;99.90;;;;;;5064581;28;20464;-74
2021/05/28 03:57:19;;;;;;;2.70;2.43;;;10.30;99.90;;;;;;5073208;28;20177;-74
2021/05/28 03:59:44;;;;;;;2.60;2.40;;;10.30;99.90;;;;;;5076102;28;20733;-74
2021/05/28 04:02:10;;;;;;;2.23;2.10;;;10.40;99.90;;;;;;5075730;28;20166;-74
2021/05/28 04:04:35;;;;;;;3.33;2.40;;;10.40;99.90;;;;;;5075938;28;20194;-75
2021/05/28 04:07:01;;;;;;;3.10;2.77;;;10.30;99.90;;;;;;5075594;28;20563;-74
2021/05/28 04:09:27;;;;;;;3.00;2.70;;;10.40;99.90;;;;;;5075630;28;20190;-74
2021/05/28 04:11:52;;;;;;;2.83;2.50;;;10.50;99.90;;;;;;5075309;28;20188;-74
2021/05/28 04:14:18;;;;;;;3.17;2.90;;;10.40;99.90;;;;;;5075538;28;20194;-74
2021/05/28 04:16:43;;;;;;;3.40;3.10;;;10.40;99.90;;;;;;5075422;28;20159;-74
2021/05/28 04:19:09;;;;;;;2.93;2.73;;;10.40;99.90;;;;;;5075380;28;20212;-74
2021/05/28 04:21:35;;;;;;;3.93;2.33;;;10.40;99.90;;;;;;5075275;28;20162;-74
2021/05/28 04:24:00;;;;;;;3.20;2.90;;;10.50;99.90;;;;;;5075288;28;20540;-74
2021/05/28 04:26:26;;;;;;;4.73;2.73;;;10.50;99.90;;;;;;5075204;28;20167;-74
2021/05/28 04:28:52;;;;;;;2.87;2.67;;;10.60;99.90;;;;;;5075123;28;20201;-74
2021/05/28 04:31:17;;;;;;;2.67;2.47;;;10.70;99.90;;;;;;5075158;28;20800;-74
2021/05/28 04:33:43;;;;;;;3.10;2.80;;;10.60;99.90;;;;;;5057541;28;20163;-74
2021/05/28 04:36:08;;;;;;;4.07;3.03;;;10.60;99.90;;;;;;5075019;28;20206;-74
2021/05/28 04:38:36;;;;;;;4.13;2.60;;;10.60;99.90;;;;;;5074922;28;20628;-74
2021/05/28 04:41:01;;;;;;;3.50;3.23;;;10.60;99.90;;;;;;5075021;28;20169;-72
2021/05/28 04:43:27;;;;;;;4.00;3.60;;;10.70;99.90;;;;;;5074817;28;20400;-73
2021/05/28 04:45:52;;;;;;;4.70;2.73;;;10.70;99.90;;;;;;5074942;28;20174;-75
2021/05/28 04:48:18;;;;;;;3.33;2.97;;;10.70;99.90;;;;;;5074691;28;20166;-75
2021/05/28 04:50:43;;;;;;;3.13;2.73;;;10.70;99.90;;;;;;5074854;28;20177;-74
2021/05/28 04:53:09;;;;;;;3.53;3.23;;;10.70;99.90;;;;;;5074975;28;20166;-74
2021/05/28 04:55:35;;;;;;;3.33;2.70;;;10.60;99.90;;;;;;5074799;28;20226;-74
2021/05/28 04:58:01;;;;;;;3.67;3.30;;;10.80;99.90;;;;;;5074657;28;20205;-74
2021/05/28 05:00:27;;;;;;;3.37;3.07;;;10.80;99.90;;;;;;5057963;28;20229;-74
2021/05/28 05:02:52;;;;;;;3.70;3.13;;;10.80;99.90;;;;;;5075002;28;20401;-74
2021/05/28 05:05:19;;;;;;;3.30;3.03;;;10.80;99.90;;;;;;5074780;28;20748;-74
2021/05/28 05:07:44;;;;;;;3.53;3.00;;;10.70;99.90;;;;;;5074844;28;20190;-74
2021/05/28 05:10:12;;;;;;;3.40;2.70;;;10.70;99.90;;;;;;5074008;28;20977;-75
2021/05/28 05:12:39;;;;;;;2.77;2.57;;;10.70;99.90;;;;;;5074687;28;20197;-74
2021/05/28 05:15:05;;;;;;;3.20;2.90;;;10.80;99.90;;;;;;5074428;28;20482;-74
2021/05/28 05:17:31;;;;;;;2.97;2.77;;;10.80;99.90;;;;;;5056356;28;20442;-73
2021/05/28 05:19:57;;;;;;;3.30;3.00;;;10.80;99.90;;;;;;5074223;28;20878;-73
2021/05/28 05:22:23;;;;;;;3.80;3.60;;;10.80;99.90;;;;;;5074168;28;20249;-73
2021/05/28 05:24:49;;;;;;;3.60;3.07;;;10.90;99.90;;;;;;5074089;28;20498;-74
2021/05/28 05:27:14;;;;;;;2.93;2.70;;;10.70;99.90;;;;;;5074013;28;20188;-73
2021/05/28 05:29:40;;;;;;;4.53;3.27;;;10.80;99.90;;;;;;5073992;28;20201;-73
2021/05/28 05:32:06;;;;;;;5.17;3.33;;;10.80;99.90;;;;;;5073996;28;20224;-73
2021/05/28 05:34:31;;;;;;;5.57;3.50;;;10.70;99.90;;;;;;5073870;28;20190;-73
2021/05/28 05:37:00;;;;;;;3.83;3.00;;;10.70;99.90;;;;;;5073895;28;20412;-73
2021/05/28 05:39:26;;;;;;;3.43;3.13;;;10.70;99.90;;;;;;5073931;28;20232;-73
2021/05/28 05:41:51;;;;;;;4.47;4.00;;;10.90;99.90;;;;;;5055822;28;20834;-73
2021/05/28 05:44:17;;;;;;;6.10;3.90;;;11.00;99.90;;;;;;5073882;28;20166;-73
2021/05/28 05:46:42;;;;;;;3.10;2.80;;;11.00;99.90;;;;;;5073788;28;20251;-73
2021/05/28 05:49:08;;;;;;;4.20;3.53;;;11.10;99.90;;;;;;5055644;28;20190;-73
2021/05/28 05:51:33;;;;;;;3.47;3.17;;;11.10;99.90;;;;;;5073703;28;20177;-75
2021/05/28 05:53:59;;;;;;;2.93;2.63;;;11.30;99.90;;;;;;5073483;28;20174;-73
2021/05/28 05:56:25;;;;;;;3.40;2.90;;;11.30;99.90;;;;;;5073462;28;20557;-73
2021/05/28 05:58:51;;;;;;;3.50;3.17;;;11.30;99.90;;;;;;5073548;28;20183;-73
2021/05/28 06:01:17;;;;;;;5.13;3.50;;;11.50;99.90;;;;;;5073358;28;20404;-73
2021/05/28 06:03:42;;;;;;;3.93;3.53;;;11.40;99.90;;;;;;5066706;28;20183;-73
2021/05/28 06:06:08;;;;;;;3.50;3.07;;;11.20;99.90;;;;;;5064297;28;20631;-73
2021/05/28 06:08:33;;;;;;;4.57;3.40;;;11.20;99.90;;;;;;5073057;28;20218;-73
2021/05/28 06:10:59;;;;;;;3.60;3.30;;;11.30;99.90;;;;;;5055048;28;20274;-74
2021/05/28 06:13:24;;;;;;;6.93;4.00;;;11.30;99.90;;;;;;5053236;28;20636;-74
2021/05/28 06:15:50;;;;;;;3.53;3.23;;;11.30;99.90;;;;;;5053130;28;20195;-74
2021/05/28 06:18:16;;;;;;;4.27;3.50;;;11.40;99.90;;;;;;5052946;28;20163;-74
2021/05/28 06:20:42;;;;;;;5.10;3.50;;;11.40;99.90;;;;;;5052148;28;20531;-74
2021/05/28 06:23:08;;;;;;;9.27;4.60;;;11.40;99.90;;;;;;5060781;28;20409;-74
2021/05/28 06:25:35;;;;;;;4.03;3.73;;;11.50;99.90;;;;;;5071281;28;20412;-74
2021/05/28 06:28:01;;;;;;;3.87;3.57;;;11.40;99.90;;;;;;5072790;28;20408;-74
2021/05/28 06:30:26;;;;;;;4.40;4.00;;;11.50;99.90;;;;;;5072846;28;20417;-74
2021/05/28 06:32:52;;;;;;;4.03;3.67;;;11.40;99.90;;;;;;5072772;28;20167;-74
2021/05/28 06:35:18;;;;;;;4.17;3.87;;;11.60;99.90;;;;;;5072675;28;20557;-74
2021/05/28 06:37:43;;;;;;;4.20;3.90;;;11.70;99.90;;;;;;5072971;28;20166;-74
2021/05/28 06:40:11;;;;;;;3.67;3.37;;;11.90;99.90;;;;;;5073014;28;20189;-74
2021/05/28 06:42:36;;;;;;;4.20;3.80;;;11.90;99.90;;;;;;5073574;28;20166;-73
2021/05/28 06:45:03;;;;;;;4.20;3.90;;;11.90;99.90;;;;;;5072667;28;20408;-73
2021/05/28 06:47:28;;;;;;;4.00;3.30;;;12.10;99.90;;;;;;5054541;28;20216;-73
2021/05/28 06:49:53;;;;;;;3.30;3.10;;;11.90;99.90;;;;;;5072417;28;20453;-73
2021/05/28 06:52:19;;;;;;;4.63;3.97;;;11.90;99.90;;;;;;5072427;28;20198;-73
2021/05/28 06:54:45;;;;;;;4.50;4.10;;;11.50;99.90;;;;;;5072464;28;20683;-73
2021/05/28 06:57:11;;;;;;;4.93;4.43;;;11.80;99.90;;;;;;5072383;28;20232;-73
2021/05/28 06:59:36;;;;;;;4.80;4.27;;;12.00;99.90;;;;;;5072439;28;20421;-74
2021/05/28 07:02:02;;;;;;;4.93;3.97;;;11.90;99.90;;;;;;5067205;28;20176;-74
2021/05/28 07:04:28;;;;;;;6.97;3.53;;;12.00;99.90;;;;;;5072500;28;20538;-73
2021/05/28 07:06:53;;;;;;;3.73;3.43;;;12.10;99.90;;;;;;5065362;28;20794;-74
2021/05/28 07:09:19;;;;;;;4.13;3.63;;;12.30;99.90;;;;;;5052174;28;20270;-74
2021/05/28 07:11:44;;;;;;;4.63;3.13;;;12.40;99.90;;;;;;5051970;28;20190;-74
2021/05/28 07:14:10;;;;;;;3.87;3.30;;;12.50;99.90;;;;;;5051982;28;20199;-74
2021/05/28 07:16:35;;;;;;;4.27;3.87;;;12.40;99.90;;;;;;5051994;28;20262;-74
2021/05/28 07:19:01;;;;;;;10.27;8.47;;;12.50;99.90;;;;;;5057641;28;20653;-73
2021/05/28 07:21:27;;;;;;;8.13;6.60;;;12.50;99.90;;;;;;5063599;28;20645;-73
2021/05/28 07:23:52;;;;;;;3.40;3.10;;;12.50;99.90;;;;;;5071939;28;20607;-73
2021/05/28 07:26:18;;;;;;;7.17;5.90;;;12.40;99.90;;;;;;5071814;28;20175;-74
2021/05/28 07:28:44;;;;;;;6.77;5.40;;;12.60;99.90;;;;;;5071971;28;20190;-74
2021/05/28 07:31:10;;;;;;;5.50;3.60;;;12.70;99.90;;;;;;5071596;28;20163;-74
2021/05/28 07:33:36;;;;;;;7.90;6.43;;;12.80;99.90;;;;;;5072274;28;20176;-77
2021/05/28 07:36:02;;;;;;;8.30;5.53;;;12.90;99.90;;;;;;5072013;28;20811;-73
2021/05/28 07:38:28;;;;;;;7.20;4.23;;;13.00;99.90;;;;;;5072712;28;20167;-76
2021/05/28 07:40:53;;;;;;;3.60;2.43;;;13.10;99.90;;;;;;5072476;28;20396;-75
2021/05/28 07:43:19;;;;;;;5.00;3.13;;;13.60;99.90;;;;;;5072056;28;20167;-76
2021/05/28 07:45:49;;;;;;;3.60;3.00;;;13.90;99.90;;;;;;5071437;28;20178;-74
2021/05/28 07:48:15;;;;;;;4.60;3.10;;;13.60;99.90;;;;;;5071846;28;20193;-76
2021/05/28 07:50:47;;;;;;;3.47;2.63;;;13.60;99.90;;;;;;5064952;28;20944;-75
2021/05/28 07:53:21;;;;;;;3.27;3.00;;;13.60;99.90;;;;;;5054095;28;20174;-75
2021/05/28 07:55:47;;;;;;;4.53;3.67;;;13.70;99.90;;;;;;5055088;28;20458;-76
2021/05/28 07:58:12;;;;;;;4.47;3.27;;;13.80;99.90;;;;;;5061291;28;20409;-76
2021/05/28 08:00:38;;;;;;;5.23;4.33;;;13.70;99.90;;;;;;5070204;28;20643;-75
2021/05/28 08:03:03;;;;;;;3.40;3.10;;;13.40;99.90;;;;;;5072455;28;20178;-75
2021/05/28 08:05:30;;;;;;;2.93;2.63;;;14.00;99.90;;;;;;5073634;28;20193;-75
2021/05/28 08:07:56;;;;;;;3.20;2.90;;;14.20;99.90;;;;;;5059186;28;20557;-76
2021/05/28 08:10:23;;;;;;;3.60;2.33;;;13.80;99.90;;;;;;5054181;28;20840;-78
2021/05/28 08:12:49;;;;;;;3.63;2.40;;;13.90;99.90;;;;;;5068163;28;20519;-74
2021/05/28 08:15:16;;;;;;;8.23;4.43;;;14.30;99.90;;;;;;5055890;28;20955;-77
2021/05/28 08:17:42;;;;;;;2.63;2.23;;;15.20;99.90;;;;;;5071813;28;20773;-76
2021/05/28 08:20:07;;;;;;;4.67;4.23;;;15.20;99.90;;;;;;5072571;28;20512;-76
2021/05/28 08:22:33;;;;;;;3.10;2.60;;;15.30;99.90;;;;;;5053994;28;20270;-75
2021/05/28 08:24:58;;;;;;;3.30;3.00;;;14.90;99.90;;;;;;5072773;28;20172;-75
2021/05/28 08:27:24;;;;;;;2.63;2.43;;;15.00;99.90;;;;;;5073647;28;20168;-75
2021/05/28 08:29:49;;;;;;;3.23;2.93;;;15.00;99.90;;;;;;5077486;28;20195;-75
2021/05/28 08:32:15;;;;;;;3.40;3.10;;;14.90;99.90;;;;;;5079856;28;20167;-75
2021/05/28 08:34:41;;;;;;;3.03;2.73;;;14.90;99.90;;;;;;5078829;28;20227;-76
2021/05/28 08:37:06;;;;;;;4.00;3.70;;;14.50;99.90;;;;;;5077976;28;20163;-76
2021/05/28 08:39:32;;;;;;;4.97;3.97;;;14.60;99.90;;;;;;5076364;28;20584;-76
2021/05/28 08:41:58;;;;;;;3.23;2.20;;;15.00;99.90;;;;;;5065872;28;20218;-76
2021/05/28 08:44:26;;;;;;;2.00;1.80;;;14.60;99.90;;;;;;5067377;28;20193;-76
2021/05/28 08:46:52;;;;;;;3.10;2.87;;;14.50;99.90;;;;;;5075211;28;20404;-76
2021/05/28 08:49:19;;;;;;;4.23;3.20;;;14.60;99.90;;;;;;5056989;28;20782;-76
2021/05/28 08:51:45;;;;;;;6.00;3.67;;;14.70;99.90;;;;;;5045673;28;20778;-76
2021/05/28 08:54:10;;;;;;;2.77;2.17;;;14.40;99.90;;;;;;5061373;28;20507;-76
2021/05/28 08:56:35;;;;;;;2.73;2.50;;;15.20;99.90;;;;;;5067646;28;20180;-76
2021/05/28 08:59:04;;;;;;;2.50;2.30;;;16.30;99.90;;;;;;5041815;28;20196;-74
2021/05/28 09:01:29;;;;;;;4.67;2.60;;;15.50;99.90;;;;;;5054829;28;20230;-75
2021/05/28 09:04:03;;;;;;;2.00;1.90;;;15.30;99.90;;;;;;5062348;28;20835;-74
2021/05/28 09:06:39;;;;;;;2.77;2.50;;;15.50;99.90;;;;;;5076425;28;20176;-75
2021/05/28 09:09:10;;;;;;;2.53;2.33;;;16.00;99.90;;;;;;5075260;28;20423;-74
2021/05/28 09:11:50;;;;;;;4.03;2.50;;;16.00;99.90;;;;;;5075483;28;20862;-74
2021/05/28 09:14:29;;;;;;;2.30;2.10;;;16.40;99.90;;;;;;5075485;28;20849;-74
2021/05/28 09:16:54;;;;;;;3.40;1.87;;;16.40;99.90;;;;;;5075307;28;20404;-74
2021/05/28 09:19:23;;;;;;;2.30;2.03;;;16.50;99.90;;;;;;5075733;28;20430;-74
2021/05/28 09:21:55;;;;;;;1.70;1.60;;;15.90;99.90;;;;;;5075356;28;20173;-74
2021/05/28 09:24:35;;;;;;;1.90;1.70;;;15.80;99.90;;;;;;5076656;28;20407;-74
2021/05/28 09:27:31;;;;;;;2.27;1.93;;;16.00;99.90;;;;;;5077258;28;20414;-74
2021/05/28 09:30:12;;;;;;;2.93;2.10;;;16.70;99.90;;;;;;5076825;28;20426;-74
2021/05/28 09:32:49;;;;;;;1.90;1.20;;;16.10;99.90;;;;;;5064743;28;20410;-74
2021/05/28 09:35:20;;;;;;;3.00;2.70;;;15.90;99.90;;;;;;5053435;28;20463;-74
2021/05/28 09:37:48;;;;;;;1.37;1.00;;;15.40;99.90;;;;;;5065808;28;20422;-74
2021/05/28 09:40:29;;;;;;;3.13;1.27;;;15.70;99.90;;;;;;5073892;28;20525;-74
2021/05/28 09:43:05;;;;;;;2.37;2.00;;;15.30;99.90;;;;;;5054078;28;20409;-74
2021/05/28 09:45:37;;;;;;;1.10;1.00;;;15.60;99.90;;;;;;5062661;28;20460;-74
2021/05/28 09:48:18;;;;;;;3.40;1.60;;;15.30;99.90;;;;;;5058802;28;20447;-75
2021/05/28 09:50:48;;;;;;;2.47;1.90;;;15.90;99.90;;;;;;5040611;28;20404;-75
2021/05/28 09:53:36;;;;;;;2.47;1.50;;;15.70;99.90;;;;;;5073768;28;20422;-75
2021/05/28 09:56:28;;;;;;;1.30;1.20;;;15.60;99.90;;;;;;5073565;28;20457;-75
2021/05/28 09:59:06;;;;;;;1.80;0.80;;;15.50;99.90;;;;;;5073433;28;20418;-75
2021/05/28 10:01:32;;;;;;;1.73;1.30;;;15.00;99.90;;;;;;5071688;28;20412;-76
2021/05/28 10:03:59;;;;;;;1.20;1.00;;;14.10;99.90;;;;;;5071089;28;20519;-75
2021/05/28 10:06:27;;;;;;;1.77;1.03;;;14.30;99.90;;;;;;5053591;28;20409;-75
2021/05/28 10:08:53;;;;;;;1.37;1.27;;;14.00;99.90;;;;;;5060246;28;20804;-75
2021/05/28 10:11:19;;;;;;;1.87;1.60;;;14.50;99.90;;;;;;5073560;28;20436;-76
2021/05/28 10:13:45;;;;;;;1.33;1.10;;;14.50;99.90;;;;;;5073845;28;20405;-76
2021/05/28 10:16:13;;;;;;;1.10;1.00;;;14.60;99.90;;;;;;5074241;28;20201;-75
2021/05/28 10:18:40;;;;;;;2.77;1.23;;;14.60;99.90;;;;;;5061168;28;20186;-75
2021/05/28 10:21:05;;;;;;;1.23;1.10;;;14.20;99.90;;;;;;5072752;28;20401;-74
2021/05/28 10:23:31;;;;;;;1.20;1.10;;;14.10;99.90;;;;;;5045763;28;20405;-74
2021/05/28 10:25:59;;;;;;;2.07;1.20;;;14.10;99.90;;;;;;5070162;28;20722;-74
2021/05/28 10:28:35;;;;;;;2.47;1.10;;;14.20;99.90;;;;;;5072541;28;20181;-74
2021/05/28 10:31:02;;;;;;;1.40;1.00;;;14.00;99.90;;;;;;5072714;28;20423;-75
2021/05/28 10:33:29;;;;;;;2.90;1.60;;;13.70;99.90;;;;;;5072819;28;20400;-75
2021/05/28 10:35:58;;;;;;;3.13;1.30;;;13.80;99.90;;;;;;5072551;28;20462;-75
2021/05/28 10:38:33;;;;;;;2.40;1.37;;;13.60;99.90;;;;;;5054808;28;20417;-75
2021/05/28 10:41:04;;;;;;;1.87;1.30;;;13.40;99.90;;;;;;5072574;28;20482;-75
2021/05/28 10:43:31;;;;;;;4.07;1.33;;;13.10;99.90;;;;;;5066760;28;20416;-75
2021/05/28 10:45:58;;;;;;;1.23;1.00;;;12.90;99.90;;;;;;5060791;28;20778;-74
2021/05/28 10:48:42;;;;;;;6.23;1.40;;;12.70;99.90;;;;;;5060314;28;20439;-75
2021/05/28 10:51:14;;;;;;;2.33;1.33;;;12.70;99.90;;;;;;5071901;28;20408;-75
2021/05/28 10:53:52;;;;;;;2.57;1.60;;;12.70;99.90;;;;;;5072465;28;20938;-75
2021/05/28 10:56:26;;;;;;;1.30;1.10;;;12.70;99.90;;;;;;5072239;28;20447;-75
2021/05/28 10:59:01;;;;;;;1.40;1.20;;;12.60;99.90;;;;;;5060124;28;21005;-74
2021/05/28 11:01:43;;;;;;;1.60;1.17;;;12.60;99.90;;;;;;5065066;28;20439;-75
2021/05/28 11:04:11;;;;;;;1.70;1.03;;;12.40;99.90;;;;;;5037751;28;20409;-75
2021/05/28 11:06:59;;;;;;;4.10;1.10;;;12.40;99.90;;;;;;5055131;28;20421;-75
2021/05/28 11:09:43;;;;;;;4.73;1.33;;;12.30;99.90;;;;;;5072271;28;20416;-74
2021/05/28 11:12:11;;;;;;;1.53;1.27;;;12.20;99.90;;;;;;5071052;28;20428;-74
2021/05/28 11:14:40;;;;;;;1.60;1.50;;;12.30;99.90;;;;;;5056835;28;21028;-77
2021/05/28 11:17:07;;;;;;;1.43;1.13;;;12.30;99.90;;;;;;5071847;28;20415;-74
2021/05/28 11:19:39;;;;;;;1.97;1.40;;;12.30;99.90;;;;;;5061398;28;20429;-75
2021/05/28 11:22:14;;;;;;;1.80;1.67;;;12.40;99.90;;;;;;5057607;28;20422;-75
2021/05/28 11:24:55;;;;;;;1.93;1.67;;;12.60;99.90;;;;;;5057612;28;20426;-75
2021/05/28 11:27:21;;;;;;;1.80;1.60;;;12.80;99.90;;;;;;5060390;28;20436;-77
2021/05/28 11:29:53;;;;;;;1.80;1.70;;;12.90;99.90;;;;;;5068176;28;20440;-76
2021/05/28 11:32:35;;;;;;;1.93;1.73;;;13.10;99.90;;;;;;5071869;28;20178;-75
2021/05/28 11:35:21;;;;;;;2.63;2.40;;;13.20;99.90;;;;;;5072133;28;20501;-75
2021/05/28 11:38:01;;;;;;;3.00;2.40;;;13.50;99.90;;;;;;5071755;28;20883;-76
2021/05/28 11:40:30;;;;;;;2.90;2.00;;;13.70;99.90;;;;;;5072391;28;20432;-76
2021/05/28 11:43:16;;;;;;;2.27;1.70;;;13.70;99.90;;;;;;5067940;28;20445;-76
2021/05/28 11:45:52;;;;;;;1.77;1.67;;;13.80;99.90;;;;;;5051669;28;20432;-76
2021/05/28 11:48:23;;;;;;;1.67;1.10;;;13.90;99.90;;;;;;5063043;28;20831;-76
2021/05/28 11:50:55;;;;;;;1.43;1.33;;;13.90;99.90;;;;;;5060348;28;20412;-76
2021/05/28 11:53:21;;;;;;;3.60;1.60;;;14.20;99.90;;;;;;5072171;28;20411;-77
2021/05/28 11:55:52;;;;;;;1.60;1.50;;;14.40;99.90;;;;;;5067563;28;20553;-77
2021/05/28 11:58:23;;;;;;;1.67;1.50;;;14.60;99.90;;;;;;5064211;28;20481;-75
2021/05/28 12:00:51;;;;;;;1.50;1.10;;;14.80;99.90;;;;;;5071739;28;20447;-76
2021/05/28 12:03:17;;;;;;;2.60;1.53;;;14.90;99.90;;;;;;5072374;28;20912;-76
2021/05/28 12:05:45;;;;;;;1.13;1.03;;;15.00;99.90;;;;;;5072675;28;20904;-75
2021/05/28 12:08:10;;;;;;;1.30;1.20;;;15.00;99.90;;;;;;5071895;28;20420;-76
2021/05/28 12:10:39;;;;;;;1.60;1.40;;;15.30;99.90;;;;;;5071735;28;20432;-75
2021/05/28 12:13:15;;;;;;;1.60;1.20;;;15.80;99.90;;;;;;5072081;28;20257;-75
2021/05/28 12:15:53;;;;;;;4.70;1.10;;;15.80;99.90;;;;;;5072160;28;20972;-76
2021/05/28 12:18:38;;;;;;;2.17;1.00;;;14.60;99.90;;;;;;5071530;28;20401;-75
2021/05/28 12:21:11;;;;;;;1.87;1.10;;;13.80;99.90;;;;;;5074652;28;20468;-76
2021/05/28 12:23:39;;;;;;;1.20;1.10;;;13.60;99.90;;;;;;5075025;28;20412;-76
2021/05/28 12:26:25;;;;;;;1.30;1.07;;;13.60;99.90;;;;;;5076015;28;20424;-76
2021/05/28 12:28:54;;;;;;;3.57;1.70;;;13.60;99.90;;;;;;5068808;28;20442;-75
2021/05/28 12:31:22;;;;;;;3.80;1.30;;;13.60;99.90;;;;;;5076245;28;20404;-75
2021/05/28 12:33:56;;;;;;;1.70;1.60;;;13.40;99.90;;;;;;5072977;28;20431;-76
2021/05/28 12:36:30;;;;;;;2.90;1.77;;;13.00;99.90;;;;;;5065601;28;20498;-75
2021/05/28 12:38:56;;;;;;;2.10;1.50;;;12.80;99.90;;;;;;5062180;28;20437;-75
2021/05/28 12:41:26;;;;;;;1.53;1.43;;;12.50;99.90;;;;;;5074394;28;20397;-74
2021/05/28 12:43:53;;;;;;;1.90;1.60;;;12.30;99.90;;;;;;5067198;28;20848;-75
2021/05/28 12:46:28;;;;;;;1.97;1.40;;;12.20;99.90;;;;;;5064498;28;20431;-75
2021/05/28 12:48:59;;;;;;;2.00;1.90;;;12.10;99.90;;;;;;5055645;28;20443;-74